sensor_id;sensor_type;location;lat;lon;timestamp;pressure;altitude;pressure_sealevel;temperature;humidity
71567;BME280;59403;47.456;19.120;2022-12-16T00:00:48;99651.09;;;1.41;100.00
71567;BME280;59403;47.456;19.120;2022-12-16T00:03:16;99653.47;;;1.44;100.00
71567;BME280;59403;47.456;19.120;2022-12-16T00:05:43;99654.38;;;1.43;100.00
71567;BME280;59403;47.456;19.120;2022-12-16T00:08:10;99653.09;;;1.48;100.00
71567;BME280;59403;47.456;19.120;2022-12-16T00:10:37;99647.75;;;1.50;100.00
71567;BME280;59403;47.456;19.120;2022-12-16T00:13:18;99641.72;;;1.49;100.00
71567;BME280;59403;47.456;19.120;2022-12-16T00:15:45;99634.03;;;1.48;100.00
71567;BME280;59403;47.456;19.120;2022-12-16T00:18:12;99628.44;;;1.52;100.00
71567;BME280;59403;47.456;19.120;2022-12-16T00:20:44;99622.84;;;1.57;100.00
71567;BME280;59403;47.456;19.120;2022-12-16T00:23:11;99621.44;;;1.53;100.00
71567;BME280;59403;47.456;19.120;2022-12-16T00:25:40;99625.72;;;1.54;100.00
71567;BME280;59403;47.456;19.120;2022-12-16T00:28:08;99627.13;;;1.58;100.00
71567;BME280;59403;47.456;19.120;2022-12-16T00:30:35;99626.41;;;1.56;100.00
71567;BME280;59403;47.456;19.120;2022-12-16T00:33:02;99624.75;;;1.55;100.00
71567;BME280;59403;47.456;19.120;2022-12-16T00:35:29;99622.84;;;1.57;100.00
71567;BME280;59403;47.456;19.120;2022-12-16T00:37:57;99623.69;;;1.57;100.00
71567;BME280;59403;47.456;19.120;2022-12-16T00:40:25;99617.63;;;1.57;100.00
71567;BME280;59403;47.456;19.120;2022-12-16T00:42:52;99627.84;;;1.60;100.00
71567;BME280;59403;47.456;19.120;2022-12-16T00:45:19;99631.28;;;1.60;100.00
71567;BME280;59403;47.456;19.120;2022-12-16T00:47:48;99632.09;;;1.61;100.00
71567;BME280;59403;47.456;19.120;2022-12-16T00:50:15;99622.63;;;1.60;100.00
71567;BME280;59403;47.456;19.120;2022-12-16T00:52:43;99621.44;;;1.64;100.00
71567;BME280;59403;47.456;19.120;2022-12-16T00:55:11;99619.53;;;1.66;100.00
71567;BME280;59403;47.456;19.120;2022-12-16T00:57:38;99617.63;;;1.68;100.00
71567;BME280;59403;47.456;19.120;2022-12-16T01:00:07;99616.69;;;1.69;100.00
71567;BME280;59403;47.456;19.120;2022-12-16T01:02:37;99606.94;;;1.71;100.00
71567;BME280;59403;47.456;19.120;2022-12-16T01:05:05;99601.00;;;1.69;100.00
71567;BME280;59403;47.456;19.120;2022-12-16T01:07:32;99592.38;;;1.68;100.00
71567;BME280;59403;47.456;19.120;2022-12-16T01:09:59;99587.03;;;1.70;100.00
71567;BME280;59403;47.456;19.120;2022-12-16T01:12:27;99582.87;;;1.67;100.00
71567;BME280;59403;47.456;19.120;2022-12-16T01:14:54;99579.91;;;1.72;100.00
71567;BME280;59403;47.456;19.120;2022-12-16T01:17:21;99572.22;;;1.70;100.00
71567;BME280;59403;47.456;19.120;2022-12-16T01:19:50;99565.78;;;1.74;100.00
71567;BME280;59403;47.456;19.120;2022-12-16T01:22:17;99562.34;;;1.74;100.00
71567;BME280;59403;47.456;19.120;2022-12-16T01:24:44;99556.91;;;1.77;100.00
71567;BME280;59403;47.456;19.120;2022-12-16T01:27:11;99552.03;;;1.72;100.00
71567;BME280;59403;47.456;19.120;2022-12-16T01:29:40;99552.47;;;1.77;100.00
71567;BME280;59403;47.456;19.120;2022-12-16T01:32:08;99543.84;;;1.77;100.00
71567;BME280;59403;47.456;19.120;2022-12-16T01:34:37;99536.94;;;1.76;100.00
71567;BME280;59403;47.456;19.120;2022-12-16T01:37:04;99526.38;;;1.77;100.00
71567;BME280;59403;47.456;19.120;2022-12-16T01:39:31;99517.38;;;1.81;100.00
71567;BME280;59403;47.456;19.120;2022-12-16T01:41:59;99516.78;;;1.78;100.00
71567;BME280;59403;47.456;19.120;2022-12-16T01:44:26;99517.75;;;1.77;100.00
71567;BME280;59403;47.456;19.120;2022-12-16T01:46:56;99503.47;;;1.81;100.00
71567;BME280;59403;47.456;19.120;2022-12-16T01:49:26;99501.00;;;1.79;100.00
71567;BME280;59403;47.456;19.120;2022-12-16T01:51:57;99496.59;;;1.80;100.00
71567;BME280;59403;47.456;19.120;2022-12-16T01:54:29;99488.91;;;1.78;100.00
71567;BME280;59403;47.456;19.120;2022-12-16T01:56:59;99489.22;;;1.85;100.00
71567;BME280;59403;47.456;19.120;2022-12-16T01:59:29;99468.22;;;1.86;100.00
71567;BME280;59403;47.456;19.120;2022-12-16T02:02:01;99448.44;;;1.84;100.00
71567;BME280;59403;47.456;19.120;2022-12-16T02:04:28;99446.16;;;1.90;100.00
71567;BME280;59403;47.456;19.120;2022-12-16T02:06:55;99446.41;;;1.87;100.00
71567;BME280;59403;47.456;19.120;2022-12-16T02:09:22;99434.88;;;1.90;100.00
71567;BME280;59403;47.456;19.120;2022-12-16T02:12:13;99430.75;;;1.87;100.00
71567;BME280;59403;47.456;19.120;2022-12-16T02:14:59;99425.00;;;1.93;100.00
71567;BME280;59403;47.456;19.120;2022-12-16T02:17:37;99400.81;;;1.91;100.00
71567;BME280;59403;47.456;19.120;2022-12-16T02:20:34;99383.25;;;1.93;100.00
71567;BME280;59403;47.456;19.120;2022-12-16T02:26:20;99350.84;;;1.96;100.00
71567;BME280;59403;47.456;19.120;2022-12-16T02:29:12;99340.09;;;1.89;100.00
71567;BME280;59403;47.456;19.120;2022-12-16T02:31:52;99342.16;;;1.95;100.00
71567;BME280;59403;47.456;19.120;2022-12-16T02:34:29;99337.22;;;1.92;100.00
71567;BME280;59403;47.456;19.120;2022-12-16T02:37:06;99330.09;;;1.94;100.00
71567;BME280;59403;47.456;19.120;2022-12-16T02:39:43;99340.53;;;1.94;100.00
71567;BME280;59403;47.456;19.120;2022-12-16T02:42:20;99329.69;;;1.99;100.00
71567;BME280;59403;47.456;19.120;2022-12-16T02:44:59;99328.06;;;1.98;100.00
71567;BME280;59403;47.456;19.120;2022-12-16T02:47:29;99333.13;;;1.99;100.00
71567;BME280;59403;47.456;19.120;2022-12-16T02:49:56;99339.69;;;1.94;100.00
71567;BME280;59403;47.456;19.120;2022-12-16T02:52:25;99343.94;;;1.95;100.00
71567;BME280;59403;47.456;19.120;2022-12-16T02:54:55;99349.31;;;1.93;100.00
71567;BME280;59403;47.456;19.120;2022-12-16T03:00:18;99358.94;;;1.93;100.00
71567;BME280;59403;47.456;19.120;2022-12-16T03:02:53;99363.59;;;1.89;100.00
71567;BME280;59403;47.456;19.120;2022-12-16T03:05:24;99368.09;;;1.87;100.00
71567;BME280;59403;47.456;19.120;2022-12-16T03:07:56;99359.31;;;1.88;100.00
71567;BME280;59403;47.456;19.120;2022-12-16T03:10:27;99347.25;;;1.97;100.00
71567;BME280;59403;47.456;19.120;2022-12-16T03:12:55;99338.22;;;2.01;100.00
71567;BME280;59403;47.456;19.120;2022-12-16T03:15:25;99343.28;;;1.93;100.00
71567;BME280;59403;47.456;19.120;2022-12-16T03:17:56;99342.56;;;1.91;100.00
71567;BME280;59403;47.456;19.120;2022-12-16T03:20:27;99317.50;;;2.09;100.00
71567;BME280;59403;47.456;19.120;2022-12-16T03:22:59;99294.97;;;2.08;100.00
71567;BME280;59403;47.456;19.120;2022-12-16T03:25:29;99304.44;;;2.09;100.00
71567;BME280;59403;47.456;19.120;2022-12-16T03:28:05;99271.94;;;2.22;100.00
71567;BME280;59403;47.456;19.120;2022-12-16T03:30:40;99287.44;;;2.14;100.00
71567;BME280;59403;47.456;19.120;2022-12-16T03:33:15;99289.09;;;2.15;100.00
71567;BME280;59403;47.456;19.120;2022-12-16T03:35:45;99281.00;;;2.18;100.00
71567;BME280;59403;47.456;19.120;2022-12-16T03:38:14;99275.09;;;2.26;100.00
71567;BME280;59403;47.456;19.120;2022-12-16T03:40:42;99281.00;;;2.18;100.00
71567;BME280;59403;47.456;19.120;2022-12-16T03:43:11;99305.16;;;2.11;100.00
71567;BME280;59403;47.456;19.120;2022-12-16T03:45:41;99310.91;;;2.05;100.00
71567;BME280;59403;47.456;19.120;2022-12-16T03:48:12;99308.97;;;2.07;100.00
71567;BME280;59403;47.456;19.120;2022-12-16T03:50:41;99319.19;;;2.10;100.00
71567;BME280;59403;47.456;19.120;2022-12-16T03:53:08;99318.34;;;2.09;100.00
71567;BME280;59403;47.456;19.120;2022-12-16T03:55:35;99290.19;;;2.13;100.00
71567;BME280;59403;47.456;19.120;2022-12-16T03:58:02;99286.66;;;2.23;100.00
71567;BME280;59403;47.456;19.120;2022-12-16T04:00:29;99277.19;;;2.32;100.00
71567;BME280;59403;47.456;19.120;2022-12-16T04:02:56;99276.06;;;2.25;100.00
71567;BME280;59403;47.456;19.120;2022-12-16T04:05:25;99272.91;;;2.21;100.00
71567;BME280;59403;47.456;19.120;2022-12-16T04:07:51;99258.25;;;2.40;100.00
71567;BME280;59403;47.456;19.120;2022-12-16T04:10:18;99249.75;;;2.47;100.00
71567;BME280;59403;47.456;19.120;2022-12-16T04:13:07;99241.66;;;2.50;100.00
71567;BME280;59403;47.456;19.120;2022-12-16T04:15:52;99226.66;;;2.52;100.00
71567;BME280;59403;47.456;19.120;2022-12-16T04:18:37;99233.13;;;2.48;100.00
71567;BME280;59403;47.456;19.120;2022-12-16T04:21:23;99224.59;;;2.56;100.00
71567;BME280;59403;47.456;19.120;2022-12-16T04:24:12;99236.47;;;2.69;100.00
71567;BME280;59403;47.456;19.120;2022-12-16T04:26:48;99228.44;;;2.61;100.00
71567;BME280;59403;47.456;19.120;2022-12-16T04:29:33;99234.22;;;2.55;100.00
71567;BME280;59403;47.456;19.120;2022-12-16T04:32:20;99231.31;;;2.49;100.00
71567;BME280;59403;47.456;19.120;2022-12-16T04:34:47;99233.25;;;2.56;100.00
71567;BME280;59403;47.456;19.120;2022-12-16T04:37:15;99224.34;;;2.59;100.00
71567;BME280;59403;47.456;19.120;2022-12-16T04:40:00;99220.78;;;2.69;100.00
71567;BME280;59403;47.456;19.120;2022-12-16T04:42:44;99215.37;;;2.61;100.00
71567;BME280;59403;47.456;19.120;2022-12-16T04:45:28;99222.13;;;2.54;100.00
71567;BME280;59403;47.456;19.120;2022-12-16T04:48:13;99220.06;;;2.58;100.00
71567;BME280;59403;47.456;19.120;2022-12-16T04:50:57;99213.19;;;2.57;100.00
71567;BME280;59403;47.456;19.120;2022-12-16T04:53:43;99216.50;;;2.59;100.00
71567;BME280;59403;47.456;19.120;2022-12-16T04:56:27;99214.69;;;2.59;100.00
71567;BME280;59403;47.456;19.120;2022-12-16T04:59:11;99231.75;;;2.54;100.00
71567;BME280;59403;47.456;19.120;2022-12-16T05:01:56;99241.09;;;2.47;100.00
71567;BME280;59403;47.456;19.120;2022-12-16T05:04:40;99234.19;;;2.46;100.00
71567;BME280;59403;47.456;19.120;2022-12-16T05:07:24;99226.91;;;2.49;100.00
71567;BME280;59403;47.456;19.120;2022-12-16T05:10:10;99218.13;;;2.50;100.00
71567;BME280;59403;47.456;19.120;2022-12-16T05:12:54;99219.09;;;2.49;100.00
71567;BME280;59403;47.456;19.120;2022-12-16T05:15:39;99196.53;;;2.58;100.00
71567;BME280;59403;47.456;19.120;2022-12-16T05:18:23;99204.66;;;2.55;100.00
71567;BME280;59403;47.456;19.120;2022-12-16T05:21:08;99212.91;;;2.50;100.00
71567;BME280;59403;47.456;19.120;2022-12-16T05:23:52;99213.16;;;2.47;100.00
71567;BME280;59403;47.456;19.120;2022-12-16T05:26:38;99211.91;;;2.42;100.00
71567;BME280;59403;47.456;19.120;2022-12-16T05:29:31;99195.16;;;2.44;100.00
71567;BME280;59403;47.456;19.120;2022-12-16T05:32:16;99199.69;;;2.42;100.00
71567;BME280;59403;47.456;19.120;2022-12-16T05:35:00;99202.16;;;2.44;100.00
71567;BME280;59403;47.456;19.120;2022-12-16T05:37:45;99208.50;;;2.41;100.00
71567;BME280;59403;47.456;19.120;2022-12-16T05:40:29;99213.28;;;2.36;100.00
71567;BME280;59403;47.456;19.120;2022-12-16T05:43:15;99208.22;;;2.44;100.00
71567;BME280;59403;47.456;19.120;2022-12-16T05:45:59;99210.41;;;2.49;100.00
71567;BME280;59403;47.456;19.120;2022-12-16T05:48:44;99216.06;;;2.44;100.00
71567;BME280;59403;47.456;19.120;2022-12-16T05:51:28;99201.34;;;2.43;100.00
71567;BME280;59403;47.456;19.120;2022-12-16T05:54:12;99189.78;;;2.46;100.00
71567;BME280;59403;47.456;19.120;2022-12-16T05:57:02;99193.25;;;2.65;100.00
71567;BME280;59403;47.456;19.120;2022-12-16T05:59:48;99209.31;;;2.61;100.00
71567;BME280;59403;47.456;19.120;2022-12-16T06:02:32;99214.16;;;2.65;100.00
71567;BME280;59403;47.456;19.120;2022-12-16T06:05:17;99212.53;;;2.74;100.00
71567;BME280;59403;47.456;19.120;2022-12-16T06:08:01;99214.72;;;2.78;100.00
71567;BME280;59403;47.456;19.120;2022-12-16T06:10:45;99227.38;;;2.73;100.00
71567;BME280;59403;47.456;19.120;2022-12-16T06:13:30;99218.44;;;2.85;100.00
71567;BME280;59403;47.456;19.120;2022-12-16T06:16:16;99226.28;;;2.85;100.00
71567;BME280;59403;47.456;19.120;2022-12-16T06:19:09;99217.72;;;2.83;100.00
71567;BME280;59403;47.456;19.120;2022-12-16T06:21:53;99223.50;;;2.87;100.00
71567;BME280;59403;47.456;19.120;2022-12-16T06:24:38;99219.81;;;2.89;100.00
71567;BME280;59403;47.456;19.120;2022-12-16T06:27:23;99226.97;;;2.97;100.00
71567;BME280;59403;47.456;19.120;2022-12-16T06:30:08;99215.56;;;2.88;100.00
71567;BME280;59403;47.456;19.120;2022-12-16T06:32:54;99220.91;;;2.87;100.00
71567;BME280;59403;47.456;19.120;2022-12-16T06:35:39;99210.59;;;3.04;100.00
71567;BME280;59403;47.456;19.120;2022-12-16T06:38:23;99217.63;;;3.04;100.00
71567;BME280;59403;47.456;19.120;2022-12-16T06:41:07;99221.91;;;2.95;100.00
71567;BME280;59403;47.456;19.120;2022-12-16T06:43:52;99224.37;;;2.97;100.00
71567;BME280;59403;47.456;19.120;2022-12-16T06:46:48;99224.06;;;2.90;100.00
71567;BME280;59403;47.456;19.120;2022-12-16T06:49:33;99224.37;;;2.97;100.00
71567;BME280;59403;47.456;19.120;2022-12-16T06:52:18;99218.84;;;3.00;100.00
71567;BME280;59403;47.456;19.120;2022-12-16T06:55:02;99223.37;;;2.98;100.00
71567;BME280;59403;47.456;19.120;2022-12-16T06:57:56;99230.28;;;2.99;100.00
71567;BME280;59403;47.456;19.120;2022-12-16T07:00:40;99237.59;;;2.95;100.00
71567;BME280;59403;47.456;19.120;2022-12-16T07:03:25;99234.00;;;2.96;100.00
71567;BME280;59403;47.456;19.120;2022-12-16T07:06:10;99236.06;;;2.93;100.00
71567;BME280;59403;47.456;19.120;2022-12-16T07:08:55;99233.84;;;2.98;100.00
71567;BME280;59403;47.456;19.120;2022-12-16T07:11:39;99225.75;;;2.91;100.00
71567;BME280;59403;47.456;19.120;2022-12-16T07:14:24;99231.50;;;2.85;100.00
71567;BME280;59403;47.456;19.120;2022-12-16T07:17:08;99240.31;;;2.84;100.00
71567;BME280;59403;47.456;19.120;2022-12-16T07:19:53;99244.03;;;2.91;100.00
71567;BME280;59403;47.456;19.120;2022-12-16T07:22:41;99231.25;;;2.98;100.00
71567;BME280;59403;47.456;19.120;2022-12-16T07:25:26;99243.19;;;2.91;100.00
71567;BME280;59403;47.456;19.120;2022-12-16T07:28:10;99248.03;;;2.86;100.00
71567;BME280;59403;47.456;19.120;2022-12-16T07:30:54;99245.44;;;2.95;100.00
71567;BME280;59403;47.456;19.120;2022-12-16T07:33:39;99238.13;;;2.99;100.00
71567;BME280;59403;47.456;19.120;2022-12-16T07:36:24;99243.62;;;2.96;100.00
71567;BME280;59403;47.456;19.120;2022-12-16T07:39:10;99249.81;;;2.95;100.00
71567;BME280;59403;47.456;19.120;2022-12-16T07:41:54;99246.63;;;3.01;100.00
71567;BME280;59403;47.456;19.120;2022-12-16T07:44:39;99247.22;;;3.14;100.00
71567;BME280;59403;47.456;19.120;2022-12-16T07:47:23;99239.91;;;3.08;100.00
71567;BME280;59403;47.456;19.120;2022-12-16T07:50:08;99244.56;;;3.23;100.00
71567;BME280;59403;47.456;19.120;2022-12-16T07:52:53;99253.81;;;3.27;100.00
71567;BME280;59403;47.456;19.120;2022-12-16T07:55:39;99246.25;;;3.24;100.00
71567;BME280;59403;47.456;19.120;2022-12-16T07:58:24;99236.28;;;3.37;100.00
71567;BME280;59403;47.456;19.120;2022-12-16T08:01:08;99239.06;;;3.36;100.00
71567;BME280;59403;47.456;19.120;2022-12-16T08:03:53;99250.75;;;3.41;100.00
71567;BME280;59403;47.456;19.120;2022-12-16T08:06:37;99255.41;;;3.57;100.00
71567;BME280;59403;47.456;19.120;2022-12-16T08:09:21;99254.19;;;3.52;100.00
71567;BME280;59403;47.456;19.120;2022-12-16T08:12:07;99258.47;;;3.53;100.00
71567;BME280;59403;47.456;19.120;2022-12-16T08:14:52;99268.63;;;3.65;100.00
71567;BME280;59403;47.456;19.120;2022-12-16T08:17:36;99276.22;;;3.59;100.00
71567;BME280;59403;47.456;19.120;2022-12-16T08:20:20;99269.87;;;3.61;100.00
71567;BME280;59403;47.456;19.120;2022-12-16T08:23:05;99265.34;;;3.63;100.00
71567;BME280;59403;47.456;19.120;2022-12-16T08:25:49;99270.69;;;3.71;100.00
71567;BME280;59403;47.456;19.120;2022-12-16T08:28:35;99266.69;;;3.67;100.00
71567;BME280;59403;47.456;19.120;2022-12-16T08:31:19;99254.69;;;3.74;100.00
71567;BME280;59403;47.456;19.120;2022-12-16T08:34:04;99252.50;;;3.70;100.00
71567;BME280;59403;47.456;19.120;2022-12-16T08:36:48;99236.91;;;3.78;100.00
71567;BME280;59403;47.456;19.120;2022-12-16T08:39:33;99252.66;;;3.68;100.00
71567;BME280;59403;47.456;19.120;2022-12-16T08:42:17;99250.44;;;3.64;100.00
71567;BME280;59403;47.456;19.120;2022-12-16T08:45:04;99231.97;;;3.75;100.00
71567;BME280;59403;47.456;19.120;2022-12-16T08:47:48;99228.50;;;3.84;100.00
71567;BME280;59403;47.456;19.120;2022-12-16T08:50:33;99235.06;;;3.88;100.00
71567;BME280;59403;47.456;19.120;2022-12-16T08:53:17;99239.22;;;3.90;100.00
71567;BME280;59403;47.456;19.120;2022-12-16T08:56:01;99235.91;;;3.88;100.00
71567;BME280;59403;47.456;19.120;2022-12-16T08:58:46;99252.44;;;3.89;100.00
71567;BME280;59403;47.456;19.120;2022-12-16T09:01:32;99255.75;;;3.91;100.00
71567;BME280;59403;47.456;19.120;2022-12-16T09:04:16;99258.78;;;3.96;100.00
71567;BME280;59403;47.456;19.120;2022-12-16T09:07:00;99270.72;;;3.98;100.00
71567;BME280;59403;47.456;19.120;2022-12-16T09:09:45;99279.81;;;4.04;100.00
71567;BME280;59403;47.456;19.120;2022-12-16T09:12:29;99278.19;;;4.03;100.00
71567;BME280;59403;47.456;19.120;2022-12-16T09:15:14;99280.81;;;4.03;100.00
71567;BME280;59403;47.456;19.120;2022-12-16T09:17:59;99286.03;;;4.03;100.00
71567;BME280;59403;47.456;19.120;2022-12-16T09:20:44;99288.50;;;4.04;100.00
71567;BME280;59403;47.456;19.120;2022-12-16T09:23:28;99299.94;;;4.03;100.00
71567;BME280;59403;47.456;19.120;2022-12-16T09:26:13;99289.00;;;4.17;100.00
71567;BME280;59403;47.456;19.120;2022-12-16T09:29:00;99287.66;;;4.13;100.00
71567;BME280;59403;47.456;19.120;2022-12-16T09:31:44;99301.16;;;4.09;100.00
71567;BME280;59403;47.456;19.120;2022-12-16T09:34:30;99301.31;;;4.07;100.00
71567;BME280;59403;47.456;19.120;2022-12-16T09:37:14;99301.16;;;4.09;100.00
71567;BME280;59403;47.456;19.120;2022-12-16T09:39:59;99310.16;;;4.06;100.00
71567;BME280;59403;47.456;19.120;2022-12-16T09:42:48;99313.88;;;4.04;100.00
71567;BME280;59403;47.456;19.120;2022-12-16T09:45:43;99306.00;;;4.04;100.00
71567;BME280;59403;47.456;19.120;2022-12-16T09:48:36;99308.78;;;4.02;100.00
71567;BME280;59403;47.456;19.120;2022-12-16T09:51:27;99304.53;;;4.01;100.00
71567;BME280;59403;47.456;19.120;2022-12-16T09:54:26;99319.25;;;4.02;100.00
71567;BME280;59403;47.456;19.120;2022-12-16T09:57:13;99302.84;;;4.10;100.00
71567;BME280;59403;47.456;19.120;2022-12-16T10:00:02;99304.03;;;4.15;100.00
71567;BME280;59403;47.456;19.120;2022-12-16T10:02:48;99318.38;;;4.21;100.00
71567;BME280;59403;47.456;19.120;2022-12-16T10:05:38;99320.97;;;4.30;100.00
71567;BME280;59403;47.456;19.120;2022-12-16T10:08:38;99331.47;;;4.21;100.00
71567;BME280;59403;47.456;19.120;2022-12-16T10:11:32;99330.94;;;4.17;100.00
71567;BME280;59403;47.456;19.120;2022-12-16T10:14:25;99328.16;;;4.19;100.00
71567;BME280;59403;47.456;19.120;2022-12-16T10:17:19;99322.13;;;4.18;100.00
71567;BME280;59403;47.456;19.120;2022-12-16T10:20:11;99335.47;;;4.15;100.00
71567;BME280;59403;47.456;19.120;2022-12-16T10:23:02;99331.06;;;4.25;100.00
71567;BME280;59403;47.456;19.120;2022-12-16T10:25:52;99342.31;;;4.35;100.00
71567;BME280;59403;47.456;19.120;2022-12-16T10:28:44;99340.94;;;4.31;100.00
71567;BME280;59403;47.456;19.120;2022-12-16T10:31:28;99341.69;;;4.24;100.00
71567;BME280;59403;47.456;19.120;2022-12-16T10:34:23;99333.69;;;4.25;100.00
71567;BME280;59403;47.456;19.120;2022-12-16T10:37:19;99345.91;;;4.34;100.00
71567;BME280;59403;47.456;19.120;2022-12-16T10:40:06;99341.09;;;4.30;100.00
71567;BME280;59403;47.456;19.120;2022-12-16T10:43:00;99348.50;;;4.34;100.00
71567;BME280;59403;47.456;19.120;2022-12-16T10:45:48;99353.37;;;4.29;100.00
71567;BME280;59403;47.456;19.120;2022-12-16T10:48:33;99348.50;;;4.34;100.00
71567;BME280;59403;47.456;19.120;2022-12-16T10:51:22;99337.47;;;4.40;100.00
71567;BME280;59403;47.456;19.120;2022-12-16T10:54:32;99348.25;;;4.37;100.00
71567;BME280;59403;47.456;19.120;2022-12-16T11:04:29;99353.66;;;4.36;100.00
71567;BME280;59403;47.456;19.120;2022-12-16T11:07:26;99370.22;;;4.27;100.00
71567;BME280;59403;47.456;19.120;2022-12-16T11:10:27;99355.72;;;4.23;100.00
71567;BME280;59403;47.456;19.120;2022-12-16T11:13:18;99360.69;;;4.26;100.00
71567;BME280;59403;47.456;19.120;2022-12-16T11:16:14;99372.69;;;4.28;100.00
71567;BME280;59403;47.456;19.120;2022-12-16T11:18:59;99377.38;;;4.25;100.00
71567;BME280;59403;47.456;19.120;2022-12-16T11:21:45;99372.53;;;4.30;100.00
71567;BME280;59403;47.456;19.120;2022-12-16T11:24:30;99371.84;;;4.28;100.00
71567;BME280;59403;47.456;19.120;2022-12-16T11:27:20;99370.38;;;4.25;100.00
71567;BME280;59403;47.456;19.120;2022-12-16T11:30:15;99375.06;;;4.22;100.00
71567;BME280;59403;47.456;19.120;2022-12-16T11:33:07;99386.34;;;4.22;100.00
71567;BME280;59403;47.456;19.120;2022-12-16T11:36:05;99391.87;;;4.19;100.00
71567;BME280;59403;47.456;19.120;2022-12-16T11:38:54;99404.56;;;4.14;100.00
71567;BME280;59403;47.456;19.120;2022-12-16T11:41:40;99423.34;;;4.10;100.00
71567;BME280;59403;47.456;19.120;2022-12-16T11:44:28;99444.56;;;4.07;100.00
71567;BME280;59403;47.456;19.120;2022-12-16T11:47:22;99459.47;;;4.06;100.00
71567;BME280;59403;47.456;19.120;2022-12-16T11:50:17;99443.75;;;4.06;100.00
71567;BME280;59403;47.456;19.120;2022-12-16T11:53:06;99447.47;;;4.04;100.00
71567;BME280;59403;47.456;19.120;2022-12-16T11:56:02;99445.69;;;4.04;100.00
71567;BME280;59403;47.456;19.120;2022-12-16T11:59:00;99457.09;;;4.03;100.00
71567;BME280;59403;47.456;19.120;2022-12-16T12:01:48;99467.87;;;4.00;100.00
71567;BME280;59403;47.456;19.120;2022-12-16T12:04:33;99453.69;;;4.03;100.00
71567;BME280;59403;47.456;19.120;2022-12-16T12:07:24;99432.72;;;4.03;100.00
71567;BME280;59403;47.456;19.120;2022-12-16T12:10:41;99436.28;;;4.02;100.00
71567;BME280;59403;47.456;19.120;2022-12-16T12:13:50;99401.97;;;4.05;100.00
71567;BME280;59403;47.456;19.120;2022-12-16T12:16:42;99381.97;;;4.13;100.00
71567;BME280;59403;47.456;19.120;2022-12-16T12:19:37;99378.09;;;4.17;100.00
71567;BME280;59403;47.456;19.120;2022-12-16T12:22:34;99385.13;;;4.17;100.00
71567;BME280;59403;47.456;19.120;2022-12-16T12:25:24;99375.31;;;4.28;100.00
71567;BME280;59403;47.456;19.120;2022-12-16T12:28:22;99382.34;;;4.28;100.00
71567;BME280;59403;47.456;19.120;2022-12-16T12:31:17;99400.28;;;4.23;100.00
71567;BME280;59403;47.456;19.120;2022-12-16T12:34:10;99410.62;;;4.24;100.00
71567;BME280;59403;47.456;19.120;2022-12-16T12:37:03;99431.31;;;4.18;100.00
71567;BME280;59403;47.456;19.120;2022-12-16T12:39:54;99423.47;;;4.18;100.00
71567;BME280;59403;47.456;19.120;2022-12-16T12:42:44;99409.66;;;4.25;100.00
71567;BME280;59403;47.456;19.120;2022-12-16T12:45:47;99410.88;;;4.31;100.00
71567;BME280;59403;47.456;19.120;2022-12-16T12:48:43;99403.00;;;4.40;100.00
71567;BME280;59403;47.456;19.120;2022-12-16T12:51:35;99402.00;;;4.51;100.00
71567;BME280;59403;47.456;19.120;2022-12-16T12:54:27;99445.63;;;4.42;100.00
71567;BME280;59403;47.456;19.120;2022-12-16T12:57:16;99441.47;;;4.40;100.00
71567;BME280;59403;47.456;19.120;2022-12-16T13:00:05;99451.41;;;4.36;100.00
71567;BME280;59403;47.456;19.120;2022-12-16T13:02:56;99453.88;;;4.38;100.00
71567;BME280;59403;47.456;19.120;2022-12-16T13:05:45;99454.97;;;4.45;100.00
71567;BME280;59403;47.456;19.120;2022-12-16T13:08:33;99460.50;;;4.42;100.00
71567;BME280;59403;47.456;19.120;2022-12-16T13:11:24;99453.34;;;4.44;100.00
71567;BME280;59403;47.456;19.120;2022-12-16T13:17:26;99452.50;;;4.43;100.00
71567;BME280;59403;47.456;19.120;2022-12-16T13:20:35;99449.88;;;4.43;100.00
71567;BME280;59403;47.456;19.120;2022-12-16T13:23:31;99451.69;;;4.43;100.00
71567;BME280;59403;47.456;19.120;2022-12-16T13:26:18;99461.66;;;4.39;100.00
71567;BME280;59403;47.456;19.120;2022-12-16T13:29:08;99453.31;;;4.53;100.00
71567;BME280;59403;47.456;19.120;2022-12-16T13:32:00;99444.34;;;4.56;100.00
71567;BME280;59403;47.456;19.120;2022-12-16T13:34:45;99452.78;;;4.50;100.00
71567;BME280;59403;47.456;19.120;2022-12-16T13:37:50;99471.69;;;4.44;100.00
71567;BME280;59403;47.456;19.120;2022-12-16T13:40:49;99479.00;;;4.40;100.00
71567;BME280;59403;47.456;19.120;2022-12-16T13:43:45;99483.56;;;4.38;100.00
71567;BME280;59403;47.456;19.120;2022-12-16T13:46:39;99491.84;;;4.34;100.00
71567;BME280;59403;47.456;19.120;2022-12-16T13:49:44;99495.56;;;4.31;100.00
71567;BME280;59403;47.456;19.120;2022-12-16T13:52:43;99499.31;;;4.29;100.00
71567;BME280;59403;47.456;19.120;2022-12-16T13:55:31;99517.91;;;4.26;100.00
71567;BME280;59403;47.456;19.120;2022-12-16T13:58:28;99521.50;;;4.25;100.00
71567;BME280;59403;47.456;19.120;2022-12-16T14:01:27;99525.09;;;4.24;100.00
71567;BME280;59403;47.456;19.120;2022-12-16T14:04:23;99529.37;;;4.25;100.00
71567;BME280;59403;47.456;19.120;2022-12-16T14:07:09;99532.53;;;4.28;100.00
71567;BME280;59403;47.456;19.120;2022-12-16T14:09:54;99534.88;;;4.31;100.00
71567;BME280;59403;47.456;19.120;2022-12-16T14:12:57;99533.25;;;4.30;100.00
71567;BME280;59403;47.456;19.120;2022-12-16T14:15:57;99533.78;;;4.34;100.00
71567;BME280;59403;47.456;19.120;2022-12-16T14:19:03;99533.38;;;4.29;100.00
71567;BME280;59403;47.456;19.120;2022-12-16T14:22:02;99536.25;;;4.26;100.00
71567;BME280;59403;47.456;19.120;2022-12-16T14:24:48;99518.59;;;4.28;100.00
71567;BME280;59403;47.456;19.120;2022-12-16T14:27:34;99516.13;;;4.26;100.00